Time;durP1;ratioP1;P1;durP2;ratioP2;P2;SDS_P1;SDS_P2;PMS_P1;PMS_P2;Temp;Humidity;BMP_temperature;BMP_pressure;BME280_temperature;BME280_humidity;BME280_pressure;Samples;Min_cycle;Max_cycle;Signal;HPM_P1;HPM_P2
2022/05/13 00:02:12;;;;;;;7.13;1.90;;;18.90;99.90;;;;;;4994319;28;20027;-72
2022/05/13 00:04:40;;;;;;;9.55;2.05;;;19.00;99.90;;;;;;4995584;28;20054;-72
2022/05/13 00:07:08;;;;;;;6.25;2.13;;;18.90;99.90;;;;;;4995757;28;20041;-73
2022/05/13 00:12:21;;;;;;;5.78;1.98;;;19.00;99.90;;;;;;4995827;28;20029;-72
2022/05/13 00:14:48;;;;;;;5.28;2.00;;;19.10;99.90;;;;;;4995244;28;20106;-72
2022/05/13 00:17:16;;;;;;;4.60;1.75;;;19.00;99.90;;;;;;4995323;28;20434;-73
2022/05/13 00:19:44;;;;;;;6.65;1.38;;;19.10;99.90;;;;;;4995163;28;20057;-73
2022/05/13 00:22:12;;;;;;;3.85;1.48;;;19.00;99.90;;;;;;4995053;28;20390;-72
2022/05/13 00:24:40;;;;;;;7.47;1.77;;;19.00;99.90;;;;;;4995046;28;20025;-73
2022/05/13 00:27:11;;;;;;;6.45;1.40;;;19.10;99.90;;;;;;4995141;28;20027;-72
2022/05/13 00:29:38;;;;;;;8.20;1.33;;;19.00;99.90;;;;;;4994928;28;20379;-73
2022/05/13 00:32:06;;;;;;;5.88;1.23;;;19.00;99.90;;;;;;4993552;28;20031;-71
2022/05/13 00:34:33;;;;;;;5.30;1.65;;;19.00;99.90;;;;;;4993620;28;20395;-72
2022/05/13 00:37:01;;;;;;;5.55;1.58;;;19.00;99.90;;;;;;4994752;28;20432;-73
2022/05/13 00:39:28;;;;;;;5.07;1.55;;;19.00;99.90;;;;;;4994823;28;20391;-73
2022/05/13 00:42:04;;;;;;;5.85;1.88;;;19.00;99.90;;;;;;4993165;28;20368;-72
2022/05/13 00:44:31;;;;;;;6.68;1.40;;;19.00;99.90;;;;;;4993592;28;20019;-72
2022/05/13 00:46:59;;;;;;;4.70;1.30;;;19.00;99.90;;;;;;4994591;28;20053;-73
2022/05/13 00:49:26;;;;;;;4.85;1.30;;;19.10;99.90;;;;;;4994555;28;20077;-72
2022/05/13 00:51:54;;;;;;;4.68;1.50;;;19.10;99.90;;;;;;4994468;28;20387;-72
2022/05/13 00:54:22;;;;;;;3.85;1.40;;;19.10;99.90;;;;;;4994480;28;20395;-72
2022/05/13 00:56:50;;;;;;;4.55;1.20;;;19.10;99.90;;;;;;4994308;28;20022;-72
2022/05/13 00:59:21;;;;;;;5.47;1.52;;;19.20;99.90;;;;;;4993176;28;20113;-72
2022/05/13 01:01:49;;;;;;;3.97;1.30;;;19.20;99.90;;;;;;4994219;28;20109;-70
2022/05/13 01:04:19;;;;;;;7.63;1.85;;;19.20;99.90;;;;;;4992575;28;20105;-73
2022/05/13 01:06:51;;;;;;;6.38;1.20;;;19.30;99.90;;;;;;4993693;28;20018;-74
2022/05/13 01:09:20;;;;;;;4.32;1.42;;;19.30;99.90;;;;;;4994715;28;20387;-74
2022/05/13 01:11:52;;;;;;;4.65;1.20;;;19.40;99.90;;;;;;4994828;28;20034;-75
2022/05/13 01:14:24;;;;;;;6.15;1.65;;;19.40;99.90;;;;;;4994908;28;20081;-75
2022/05/13 01:19:38;;;;;;;6.10;1.65;;;19.40;99.90;;;;;;4994616;28;20081;-75
2022/05/13 01:22:16;;;;;;;5.63;1.55;;;19.50;99.90;;;;;;4993848;28;20026;-74
2022/05/13 01:24:45;;;;;;;4.22;1.30;;;19.40;99.90;;;;;;4993906;28;20022;-75
2022/05/13 01:27:12;;;;;;;6.03;1.70;;;19.40;99.90;;;;;;4993811;28;20114;-75
2022/05/13 01:29:40;;;;;;;5.60;1.73;;;19.40;99.90;;;;;;4992566;28;20026;-75
2022/05/13 01:32:08;;;;;;;5.85;1.30;;;19.40;99.90;;;;;;4992391;28;20057;-75
2022/05/13 01:34:35;;;;;;;3.40;1.33;;;19.40;99.90;;;;;;4993926;28;20034;-75
2022/05/13 01:37:03;;;;;;;3.97;1.25;;;19.50;99.90;;;;;;4993972;28;20372;-74
2022/05/13 01:39:30;;;;;;;3.00;1.00;;;19.50;99.90;;;;;;4993750;28;20022;-74
2022/05/13 01:41:57;;;;;;;2.88;1.05;;;19.50;99.90;;;;;;4992313;28;20034;-74
2022/05/13 01:44:24;;;;;;;3.90;1.20;;;19.60;99.90;;;;;;4993637;28;20098;-75
2022/05/13 01:46:52;;;;;;;6.13;1.20;;;19.50;99.90;;;;;;4992323;28;20476;-74
2022/05/13 01:49:19;;;;;;;5.00;1.35;;;19.50;99.90;;;;;;4993667;28;20073;-74
2022/05/13 01:51:46;;;;;;;6.38;1.60;;;19.60;99.90;;;;;;4993670;28;20115;-74
2022/05/13 01:54:14;;;;;;;5.78;1.13;;;19.60;99.90;;;;;;4993757;28;20037;-74
2022/05/13 01:56:41;;;;;;;3.38;1.20;;;19.60;99.90;;;;;;4993441;28;20049;-74
2022/05/13 01:59:08;;;;;;;3.97;1.20;;;19.70;99.90;;;;;;4993630;28;20022;-74
2022/05/13 02:01:36;;;;;;;2.78;0.95;;;19.70;99.90;;;;;;4993386;28;20026;-74
2022/05/13 02:04:03;;;;;;;3.97;0.93;;;19.80;99.90;;;;;;4993300;28;20081;-74
2022/05/13 02:06:30;;;;;;;4.65;1.58;;;19.90;99.90;;;;;;4993387;28;20514;-74
2022/05/13 02:08:59;;;;;;;4.13;1.17;;;20.00;99.90;;;;;;4993395;28;20030;-75
2022/05/13 02:11:29;;;;;;;5.03;1.35;;;20.20;99.90;;;;;;4992131;28;20390;-75
2022/05/13 02:13:57;;;;;;;4.90;1.40;;;20.40;99.90;;;;;;4993803;28;20025;-75
2022/05/13 02:16:24;;;;;;;3.45;1.00;;;20.60;99.90;;;;;;4994591;28;20264;-75
2022/05/13 02:18:52;;;;;;;2.88;0.90;;;20.70;99.90;;;;;;4996246;28;20080;-75
2022/05/13 02:21:20;;;;;;;4.93;1.05;;;20.80;99.90;;;;;;4997382;28;20022;-75
2022/05/13 02:23:47;;;;;;;2.90;0.85;;;20.60;99.90;;;;;;4997120;28;20128;-75
2022/05/13 02:26:17;;;;;;;2.45;0.70;;;20.60;99.90;;;;;;4997268;28;20018;-75
2022/05/13 02:28:45;;;;;;;1.35;0.95;;;20.50;99.90;;;;;;4997148;28;20101;-75
2022/05/13 02:31:14;;;;;;;1.95;0.75;;;20.60;99.90;;;;;;4995742;28;20023;-75
2022/05/13 02:33:42;;;;;;;2.60;0.82;;;20.60;99.90;;;;;;4996803;28;20096;-75
2022/05/13 02:36:11;;;;;;;4.30;0.70;;;20.70;99.90;;;;;;4995834;28;20026;-75
2022/05/13 02:38:40;;;;;;;2.20;0.68;;;20.80;99.90;;;;;;4996972;28;20026;-75
2022/05/13 02:41:17;;;;;;;3.20;0.90;;;20.80;99.90;;;;;;4996902;28;20045;-75
2022/05/13 02:43:46;;;;;;;2.15;0.68;;;20.80;99.90;;;;;;4996815;28;20022;-75
2022/05/13 02:46:17;;;;;;;1.75;0.60;;;20.90;99.90;;;;;;4996813;28;20025;-75
2022/05/13 02:48:45;;;;;;;1.50;0.70;;;20.80;99.90;;;;;;4995573;28;20497;-75
2022/05/13 02:51:13;;;;;;;5.25;0.90;;;20.80;99.90;;;;;;4996991;28;20383;-75
2022/05/13 02:53:41;;;;;;;2.15;0.43;;;20.80;99.90;;;;;;4995483;28;20569;-75
2022/05/13 02:56:08;;;;;;;5.22;0.90;;;20.80;99.90;;;;;;4996670;28;20105;-75
2022/05/13 02:58:37;;;;;;;1.65;0.50;;;20.70;99.90;;;;;;4996692;28;20032;-74
2022/05/13 03:01:07;;;;;;;3.20;0.77;;;20.70;99.90;;;;;;4996562;28;20100;-74
2022/05/13 03:03:37;;;;;;;3.30;0.70;;;20.70;99.90;;;;;;4996497;28;20491;-75
2022/05/13 03:06:05;;;;;;;2.72;0.57;;;20.70;99.90;;;;;;4996314;28;20097;-75
2022/05/13 03:08:32;;;;;;;1.50;0.57;;;20.70;99.90;;;;;;4996493;28;20080;-75
2022/05/13 03:11:01;;;;;;;2.90;0.65;;;20.60;99.90;;;;;;4996338;28;20026;-75
2022/05/13 03:13:28;;;;;;;2.20;0.52;;;20.60;99.90;;;;;;4996353;28;20054;-75
2022/05/13 03:16:00;;;;;;;4.50;0.90;;;20.70;99.90;;;;;;4996303;28;20106;-75
2022/05/13 03:18:28;;;;;;;3.55;0.63;;;20.60;99.90;;;;;;4996379;28;20026;-75
2022/05/13 03:20:55;;;;;;;2.70;0.57;;;20.60;99.90;;;;;;4996226;28;20028;-75
2022/05/13 03:23:23;;;;;;;2.35;0.52;;;20.60;99.90;;;;;;4996088;28;20022;-75
2022/05/13 03:25:50;;;;;;;1.65;0.50;;;20.50;99.90;;;;;;4996122;28;20023;-75
2022/05/13 03:28:18;;;;;;;2.83;0.57;;;20.50;99.90;;;;;;4993832;28;20504;-75
2022/05/13 03:30:45;;;;;;;3.05;0.85;;;20.50;99.90;;;;;;4996289;28;20103;-75
2022/05/13 03:33:13;;;;;;;1.92;0.70;;;20.60;99.90;;;;;;4994740;28;20027;-75
2022/05/13 03:35:40;;;;;;;4.25;1.20;;;20.70;99.90;;;;;;4995928;28;20434;-75
2022/05/13 03:38:07;;;;;;;4.57;1.30;;;20.50;99.90;;;;;;4995986;28;20391;-75
2022/05/13 03:40:36;;;;;;;5.53;1.35;;;20.60;99.90;;;;;;4994565;28;20029;-75
2022/05/13 03:43:07;;;;;;;6.65;1.20;;;20.70;99.90;;;;;;4995833;28;20049;-75
2022/05/13 03:45:36;;;;;;;5.28;1.50;;;20.60;99.90;;;;;;4994583;28;20026;-75
2022/05/13 03:48:05;;;;;;;5.45;1.70;;;20.80;99.90;;;;;;4995802;28;20026;-75
2022/05/13 03:50:33;;;;;;;5.82;1.90;;;20.80;99.90;;;;;;4995905;28;20022;-75
2022/05/13 03:53:02;;;;;;;5.25;1.73;;;20.60;99.90;;;;;;4995789;28;20387;-75
2022/05/13 03:55:30;;;;;;;5.45;1.75;;;20.60;99.90;;;;;;4995703;28;20050;-75
2022/05/13 03:57:58;;;;;;;3.17;1.10;;;20.50;99.90;;;;;;4995702;28;20486;-75
2022/05/13 04:00:26;;;;;;;5.15;1.55;;;20.50;99.90;;;;;;4995579;28;20029;-75
2022/05/13 04:02:53;;;;;;;3.92;1.13;;;20.50;99.90;;;;;;4995474;28;20033;-75
2022/05/13 04:10:52;;;;;;;5.25;1.65;;;20.70;99.90;;;;;;4995670;28;20134;-75
2022/05/13 04:16:08;;;;;;;5.78;1.50;;;20.70;99.90;;;;;;4995355;28;20029;-75
2022/05/13 04:18:39;;;;;;;;;;;20.70;99.90;;;;;;4995626;28;20172;-75
2022/05/13 04:21:13;;;;;;;4.40;1.15;;;20.70;99.90;;;;;;4995180;28;19987;-74
2022/05/13 04:23:44;;;;;;;4.95;1.27;;;20.70;99.90;;;;;;4993936;28;20035;-75
2022/05/13 04:26:14;;;;;;;6.55;1.85;;;20.70;99.90;;;;;;4994990;28;20049;-74
2022/05/13 04:28:44;;;;;;;3.92;1.10;;;20.70;99.90;;;;;;4995132;28;20504;-75
2022/05/13 04:31:14;;;;;;;3.07;0.80;;;20.80;99.90;;;;;;4995057;28;20019;-75
2022/05/13 04:33:41;;;;;;;6.47;1.35;;;20.80;99.90;;;;;;4995141;28;20256;-75
2022/05/13 04:36:09;;;;;;;6.65;1.25;;;20.80;99.90;;;;;;4993578;28;20368;-75
2022/05/13 04:38:37;;;;;;;7.03;1.42;;;20.80;99.90;;;;;;4994872;28;20519;-75
2022/05/13 04:43:51;;;;;;;3.97;0.90;;;20.80;99.90;;;;;;4995123;28;20065;-81
2022/05/13 04:46:18;;;;;;;5.13;1.00;;;20.90;99.90;;;;;;4995661;28;20057;-80
2022/05/13 04:48:49;;;;;;;3.63;0.95;;;20.90;99.90;;;;;;4994419;28;20022;-80
2022/05/13 04:51:20;;;;;;;3.80;0.90;;;20.80;99.90;;;;;;4993847;28;20546;-80
2022/05/13 04:53:50;;;;;;;5.82;1.17;;;20.80;99.90;;;;;;4993843;28;20040;-81
2022/05/13 04:56:22;;;;;;;5.78;1.20;;;20.80;99.90;;;;;;4995371;28;20050;-81
2022/05/13 04:58:49;;;;;;;4.72;1.02;;;20.80;99.90;;;;;;4994189;28;20089;-80
2022/05/13 05:01:18;;;;;;;4.85;0.98;;;20.70;99.90;;;;;;4993856;28;20554;-80
2022/05/13 05:03:46;;;;;;;4.07;1.00;;;20.70;99.90;;;;;;4995214;28;20033;-80
2022/05/13 05:06:15;;;;;;;4.13;1.10;;;20.70;99.90;;;;;;4994828;28;20097;-80
2022/05/13 05:08:43;;;;;;;6.82;0.95;;;20.90;99.90;;;;;;4994835;28;20080;-80
2022/05/13 05:11:12;;;;;;;4.40;1.02;;;21.00;99.90;;;;;;4995083;28;20101;-80
2022/05/13 05:13:43;;;;;;;7.22;1.30;;;21.00;99.90;;;;;;4995494;28;20386;-78
2022/05/13 05:16:11;;;;;;;6.28;1.13;;;21.10;99.90;;;;;;4994179;28;20105;-78
2022/05/13 05:18:39;;;;;;;5.93;1.52;;;21.20;99.90;;;;;;4992808;28;20121;-79
2022/05/13 05:21:08;;;;;;;4.32;1.15;;;21.20;99.90;;;;;;4994076;28;20041;-80
2022/05/13 05:23:39;;;;;;;4.78;1.15;;;21.20;99.90;;;;;;4993929;28;20105;-80
2022/05/13 05:26:07;;;;;;;3.83;1.00;;;21.30;99.90;;;;;;4992745;28;20053;-80
2022/05/13 05:28:37;;;;;;;5.95;1.60;;;21.40;99.90;;;;;;4994031;28;20475;-79
2022/05/13 05:31:05;;;;;;;3.70;1.23;;;21.50;99.90;;;;;;4994237;28;20490;-79
2022/05/13 05:33:33;;;;;;;3.90;1.52;;;21.50;99.90;;;;;;4992503;28;20061;-79
2022/05/13 05:36:00;;;;;;;5.07;1.50;;;21.40;99.90;;;;;;4993950;28;20022;-80
2022/05/13 05:38:27;;;;;;;4.82;1.27;;;21.30;99.90;;;;;;4992538;28;20042;-78
2022/05/13 05:40:55;;;;;;;6.70;1.73;;;21.30;99.90;;;;;;4994252;28;20471;-80
2022/05/13 05:43:23;;;;;;;4.25;1.70;;;21.20;99.90;;;;;;4993485;28;20027;-79
2022/05/13 05:45:50;;;;;;;4.00;1.67;;;21.30;99.90;;;;;;4993678;28;20033;-79
2022/05/13 05:48:22;;;;;;;4.03;1.70;;;21.30;99.90;;;;;;4992557;28;20037;-78
2022/05/13 05:50:54;;;;;;;7.88;3.08;;;21.40;99.90;;;;;;4993653;28;20030;-79
2022/05/13 05:58:54;;;;;;;6.22;3.25;;;21.20;99.90;;;;;;4993630;28;20064;-78
2022/05/13 06:01:22;;;;;;;8.63;3.65;;;21.10;99.90;;;;;;4993511;28;20060;-78
2022/05/13 06:03:49;;;;;;;10.13;4.03;;;21.00;99.90;;;;;;4992161;28;20027;-78
2022/05/13 06:06:16;;;;;;;8.48;4.50;;;20.90;99.90;;;;;;4993292;28;20046;-78
2022/05/13 06:08:44;;;;;;;7.97;4.47;;;20.90;99.90;;;;;;4993476;28;20030;-77
2022/05/13 06:11:11;;;;;;;6.85;4.55;;;20.80;99.90;;;;;;4993376;28;20093;-76
2022/05/13 06:13:39;;;;;;;7.38;5.00;;;20.80;99.90;;;;;;4993445;28;20396;-77
2022/05/13 06:16:07;;;;;;;8.05;6.45;;;20.60;99.90;;;;;;4993274;28;20035;-75
2022/05/13 06:18:36;;;;;;;8.10;5.00;;;20.50;99.90;;;;;;4993491;28;20041;-75
2022/05/13 06:21:04;;;;;;;10.07;5.70;;;20.50;99.90;;;;;;4993452;28;20061;-75
2022/05/13 06:23:33;;;;;;;11.23;6.32;;;20.40;99.90;;;;;;4993219;28;20376;-75
2022/05/13 06:26:00;;;;;;;7.47;5.45;;;20.30;99.90;;;;;;4993298;28;20014;-75
2022/05/13 06:28:29;;;;;;;8.18;5.38;;;20.20;99.90;;;;;;4993666;28;20026;-75
2022/05/13 06:30:56;;;;;;;9.48;5.70;;;20.20;99.90;;;;;;4993221;28;20390;-75
2022/05/13 06:33:23;;;;;;;9.30;5.20;;;20.10;99.90;;;;;;4993214;28;20439;-75
2022/05/13 06:35:52;;;;;;;11.38;6.80;;;20.10;99.90;;;;;;4993177;28;20026;-75
2022/05/13 06:38:22;;;;;;;10.57;6.13;;;20.00;99.90;;;;;;4993018;28;20495;-75
2022/05/13 06:40:51;;;;;;;10.25;6.07;;;19.90;99.90;;;;;;4993114;28;20399;-75
2022/05/13 06:43:18;;;;;;;10.65;6.50;;;19.90;99.90;;;;;;4991863;28;20030;-75
2022/05/13 06:45:46;;;;;;;9.32;6.03;;;19.80;99.90;;;;;;4993067;28;20491;-75
2022/05/13 06:48:13;;;;;;;11.98;6.88;;;19.70;99.90;;;;;;4991821;28;20026;-75
2022/05/13 06:50:46;;;;;;;8.77;6.65;;;19.70;99.90;;;;;;4993435;28;20044;-75
2022/05/13 06:53:14;;;;;;;11.55;6.43;;;19.60;99.90;;;;;;4993351;28;20503;-74
2022/05/13 06:55:43;;;;;;;9.60;6.07;;;19.70;99.90;;;;;;4993049;28;20081;-75
2022/05/13 06:58:12;;;;;;;6.60;5.50;;;19.70;99.90;;;;;;4992935;28;20054;-75
2022/05/13 07:00:39;;;;;;;9.63;6.57;;;19.70;99.90;;;;;;4992858;28;20109;-75
2022/05/13 07:03:10;;;;;;;11.18;6.32;;;19.70;99.90;;;;;;4993156;28;20033;-75
2022/05/13 07:05:38;;;;;;;7.80;5.80;;;19.70;99.90;;;;;;4994821;28;20042;-74
2022/05/13 07:08:05;;;;;;;8.57;6.30;;;19.70;99.90;;;;;;4996386;28;20368;-75
2022/05/13 07:10:33;;;;;;;8.95;6.57;;;19.60;99.90;;;;;;4994844;28;20026;-75
2022/05/13 07:13:06;;;;;;;12.73;7.00;;;19.50;99.90;;;;;;4996397;28;20080;-75
2022/05/13 07:15:33;;;;;;;10.10;6.13;;;19.50;99.90;;;;;;4996706;28;20480;-75
2022/05/13 07:18:01;;;;;;;10.05;6.57;;;19.50;99.90;;;;;;4995035;28;20442;-75
2022/05/13 07:20:29;;;;;;;11.40;6.57;;;19.40;99.90;;;;;;4996224;28;20101;-75
2022/05/13 07:22:57;;;;;;;8.38;6.05;;;19.40;99.90;;;;;;4994909;28;20034;-75
2022/05/13 07:25:26;;;;;;;9.10;6.22;;;19.40;99.90;;;;;;4994987;28;20419;-76
2022/05/13 07:27:53;;;;;;;11.82;6.55;;;19.40;99.90;;;;;;4995119;28;20022;-78
2022/05/13 07:30:21;;;;;;;12.60;6.28;;;19.40;99.90;;;;;;4996143;28;20422;-76
2022/05/13 07:32:48;;;;;;;13.23;6.22;;;19.40;99.90;;;;;;4994786;28;20054;-77
2022/05/13 07:35:15;;;;;;;13.73;6.35;;;19.40;99.90;;;;;;4996109;28;20041;-76
2022/05/13 07:37:43;;;;;;;9.57;6.10;;;19.40;99.90;;;;;;4995905;28;20109;-76
2022/05/13 07:42:57;;;;;;;13.02;6.13;;;19.40;99.90;;;;;;4996089;28;20030;-77
2022/05/13 07:45:24;;;;;;;16.83;6.57;;;19.40;99.90;;;;;;4994601;28;20022;-76
2022/05/13 07:47:53;;;;;;;18.38;7.13;;;19.40;99.90;;;;;;4994554;28;20105;-77
2022/05/13 07:50:21;;;;;;;16.02;7.22;;;19.40;99.90;;;;;;4995757;28;20072;-78
2022/05/13 07:52:50;;;;;;;10.63;6.25;;;19.40;99.90;;;;;;4995823;28;20379;-78
2022/05/13 07:55:19;;;;;;;15.80;6.55;;;19.40;99.90;;;;;;4995951;28;20031;-75
2022/05/13 07:57:47;;;;;;;18.15;6.45;;;19.40;99.90;;;;;;4995691;28;20061;-76
2022/05/13 08:00:25;;;;;;;19.55;6.85;;;19.40;99.90;;;;;;4995668;28;20110;-76
2022/05/13 08:03:08;;;;;;;18.58;6.68;;;19.40;99.90;;;;;;4994541;28;20115;-77
2022/05/13 08:05:42;;;;;;;15.30;6.03;;;19.40;99.90;;;;;;4995687;28;20133;-78
2022/05/13 08:08:15;;;;;;;16.10;6.45;;;19.40;99.90;;;;;;4996247;28;20027;-78
2022/05/13 08:10:47;;;;;;;16.48;6.60;;;19.40;99.90;;;;;;4996764;28;20479;-72
2022/05/13 08:13:15;;;;;;;16.98;6.22;;;19.30;99.90;;;;;;4993938;28;20049;-72
2022/05/13 08:15:43;;;;;;;13.38;5.65;;;19.20;99.90;;;;;;4994761;28;20026;-72
2022/05/13 08:18:11;;;;;;;13.32;6.13;;;19.20;99.90;;;;;;4995390;28;20061;-72
2022/05/13 08:20:38;;;;;;;17.35;6.15;;;19.10;99.90;;;;;;4995358;28;20030;-72
2022/05/13 08:23:06;;;;;;;14.52;6.68;;;19.10;99.90;;;;;;4995080;28;20024;-72
2022/05/13 08:25:33;;;;;;;14.82;7.13;;;19.00;99.90;;;;;;4995107;28;20022;-71
2022/05/13 08:28:01;;;;;;;13.90;6.57;;;19.00;99.90;;;;;;4995003;28;20093;-72
2022/05/13 08:30:28;;;;;;;15.48;6.65;;;18.90;99.90;;;;;;4995020;28;20023;-72
2022/05/13 08:32:57;;;;;;;15.02;8.00;;;18.90;99.90;;;;;;4995356;28;20483;-72
2022/05/13 08:35:24;;;;;;;17.05;7.70;;;18.80;99.90;;;;;;4994936;28;20053;-72
2022/05/13 08:37:55;;;;;;;15.13;7.13;;;18.80;99.90;;;;;;4994900;28;20030;-72
2022/05/13 08:40:52;;;;;;;18.25;7.55;;;18.80;99.90;;;;;;4994834;28;20036;-72
2022/05/13 08:43:35;;;;;;;13.38;7.07;;;18.70;99.90;;;;;;4994628;28;20023;-72
2022/05/13 08:46:17;;;;;;;16.63;7.88;;;18.60;99.90;;;;;;4994877;28;20019;-72
2022/05/13 08:49:19;;;;;;;14.60;7.65;;;18.60;99.90;;;;;;4994651;28;20032;-73
2022/05/13 08:52:04;;;;;;;17.70;7.25;;;18.50;99.90;;;;;;4994586;28;20053;-73
2022/05/13 08:54:35;;;;;;;20.35;7.70;;;18.50;99.90;;;;;;4993241;28;20023;-73
2022/05/13 08:57:10;;;;;;;16.27;7.78;;;18.50;99.90;;;;;;4994544;28;20026;-73
2022/05/13 09:00:11;;;;;;;19.40;8.00;;;18.50;99.90;;;;;;4994555;28;20026;-72
2022/05/13 09:02:58;;;;;;;19.60;8.05;;;18.50;99.90;;;;;;4993182;28;20084;-73
2022/05/13 09:05:28;;;;;;;15.90;8.05;;;18.40;99.90;;;;;;4994210;28;20434;-72
2022/05/13 09:07:56;;;;;;;21.10;9.88;;;18.40;99.90;;;;;;4994358;28;20018;-72
2022/05/13 09:10:25;;;;;;;16.63;8.95;;;18.40;99.90;;;;;;4993019;28;20113;-73
2022/05/13 09:13:05;;;;;;;17.60;8.55;;;18.40;99.90;;;;;;4994273;28;20022;-72
2022/05/13 09:15:39;;;;;;;19.02;8.90;;;18.30;99.90;;;;;;4994867;28;20026;-72
2022/05/13 09:18:10;;;;;;;20.63;9.63;;;18.30;99.90;;;;;;4994529;28;20035;-73
2022/05/13 09:20:50;;;;;;;21.00;10.23;;;18.30;99.90;;;;;;4994269;28;20022;-73
2022/05/13 09:23:19;;;;;;;22.23;10.00;;;18.30;99.90;;;;;;4993982;28;20076;-72
2022/05/13 09:26:01;;;;;;;14.30;7.95;;;18.30;99.90;;;;;;4993381;28;20036;-73
2022/05/13 09:28:31;;;;;;;21.60;8.90;;;18.20;99.90;;;;;;4994005;28;20506;-73
2022/05/13 09:31:06;;;;;;;18.83;9.33;;;18.20;99.90;;;;;;4994319;28;20493;-72
2022/05/13 09:33:40;;;;;;;17.45;8.13;;;18.20;99.90;;;;;;4994240;28;20260;-72
2022/05/13 09:36:27;;;;;;;19.58;9.73;;;18.10;99.90;;;;;;4992824;28;20057;-72
2022/05/13 09:38:56;;;;;;;22.20;10.13;;;18.20;99.90;;;;;;4994052;28;20027;-72
2022/05/13 09:41:37;;;;;;;23.70;10.90;;;18.20;99.90;;;;;;4994308;28;20022;-73
2022/05/13 09:44:22;;;;;;;20.88;10.65;;;18.20;99.90;;;;;;4994021;28;20034;-73
2022/05/13 09:47:10;;;;;;;17.67;9.45;;;18.10;99.90;;;;;;4992553;28;20030;-73
2022/05/13 09:49:42;;;;;;;22.30;11.50;;;18.20;99.90;;;;;;4993728;28;20018;-72
2022/05/13 09:52:14;;;;;;;23.73;11.50;;;18.20;99.90;;;;;;4993968;28;20029;-72
2022/05/13 09:54:45;;;;;;;23.70;11.80;;;18.20;99.90;;;;;;4993630;28;20038;-72
2022/05/13 09:57:22;;;;;;;20.38;10.10;;;18.20;99.90;;;;;;4993683;28;20027;-72
2022/05/13 10:00:15;;;;;;;23.10;11.00;;;18.20;99.90;;;;;;4992319;28;20041;-72
2022/05/13 10:02:47;;;;;;;19.42;10.23;;;18.20;99.90;;;;;;4992294;28;20037;-72
2022/05/13 10:05:19;;;;;;;21.25;11.63;;;18.20;99.90;;;;;;4993543;28;20121;-72
2022/05/13 10:08:08;;;;;;;24.88;12.38;;;18.20;99.90;;;;;;4993870;28;20018;-72
2022/05/13 10:16:13;;;;;;;24.67;12.60;;;18.50;99.90;;;;;;4993540;28;20041;-72
2022/05/13 10:19:17;;;;;;;19.52;10.82;;;18.60;99.90;;;;;;4993499;28;20034;-72
2022/05/13 10:21:54;;;;;;;26.75;12.45;;;18.70;99.90;;;;;;4992246;28;20081;-72
2022/05/13 10:24:27;;;;;;;23.40;12.48;;;18.70;99.90;;;;;;4993392;28;20026;-72
2022/05/13 10:26:57;;;;;;;22.15;12.18;;;18.70;99.90;;;;;;4993658;28;20435;-72
2022/05/13 10:29:38;;;;;;;25.20;13.88;;;18.80;99.90;;;;;;4993895;28;20089;-72
2022/05/13 10:32:24;;;;;;;31.05;14.57;;;18.80;99.90;;;;;;4993432;28;20383;-72
2022/05/13 10:34:55;;;;;;;29.85;14.32;;;18.80;99.90;;;;;;4993933;28;20093;-72
2022/05/13 10:38:11;;;;;;;26.08;13.98;;;18.90;99.90;;;;;;4992735;28;20368;-72
2022/05/13 10:40:42;;;;;;;25.98;14.90;;;18.90;99.90;;;;;;4975470;28;20027;-72
2022/05/13 10:43:21;;;;;;;23.10;14.73;;;18.90;99.90;;;;;;4993453;28;20434;-73
2022/05/13 10:45:52;;;;;;;23.45;15.27;;;18.90;99.90;;;;;;4995749;28;20025;-73
2022/05/13 10:48:27;;;;;;;26.30;14.93;;;18.90;99.90;;;;;;4997053;28;20018;-74
2022/05/13 10:51:23;;;;;;;24.13;15.05;;;18.90;99.90;;;;;;4995647;28;20030;-74
2022/05/13 10:54:09;;;;;;;24.58;14.88;;;18.90;99.90;;;;;;4996928;28;20049;-74
2022/05/13 10:56:53;;;;;;;20.23;12.98;;;19.00;99.90;;;;;;4996847;28;20093;-74
2022/05/13 10:59:31;;;;;;;25.25;14.52;;;19.00;99.90;;;;;;4996859;28;20022;-74
2022/05/13 11:02:10;;;;;;;24.27;15.20;;;19.00;99.90;;;;;;4995433;28;20030;-74
2022/05/13 11:05:14;;;;;;;23.08;15.05;;;19.00;99.90;;;;;;4996829;28;20185;-74
2022/05/13 11:08:12;;;;;;;24.25;16.35;;;19.00;99.90;;;;;;4996574;28;20475;-74
2022/05/13 11:11:15;;;;;;;22.05;14.30;;;19.00;99.90;;;;;;4996845;28;20019;-74
2022/05/13 11:14:17;;;;;;;20.45;12.80;;;19.00;99.90;;;;;;4988233;28;20487;-74
2022/05/13 11:16:56;;;;;;;19.50;14.57;;;19.00;99.90;;;;;;4996835;28;20380;-74
2022/05/13 11:19:38;;;;;;;27.02;15.93;;;19.00;99.90;;;;;;4996995;28;20019;-73
2022/05/13 11:22:05;;;;;;;19.05;13.07;;;19.00;99.90;;;;;;4996299;28;20426;-74
2022/05/13 11:28:06;;;;;;;22.48;13.32;;;19.00;99.90;;;;;;4996352;28;20069;-74
2022/05/13 11:31:01;;;;;;;17.45;12.82;;;19.10;99.90;;;;;;4995016;28;20094;-74
2022/05/13 11:33:52;;;;;;;24.27;14.60;;;19.10;99.90;;;;;;4996337;28;20509;-74
2022/05/13 11:36:51;;;;;;;24.98;15.23;;;19.10;99.90;;;;;;4996473;28;20382;-74
2022/05/13 11:39:36;;;;;;;20.08;13.70;;;19.10;99.90;;;;;;4996261;28;20049;-74
2022/05/13 11:42:12;;;;;;;20.23;14.05;;;19.10;99.90;;;;;;4994646;28;20030;-73
2022/05/13 11:44:51;;;;;;;22.52;13.77;;;19.10;99.90;;;;;;4996137;28;20114;-74
2022/05/13 11:47:36;;;;;;;18.65;12.88;;;19.10;99.90;;;;;;4996141;28;20026;-74
2022/05/13 11:50:05;;;;;;;20.60;12.45;;;19.10;99.90;;;;;;4994840;28;20475;-73
2022/05/13 11:52:41;;;;;;;16.63;12.85;;;19.10;99.90;;;;;;4995711;28;20026;-73
2022/05/13 11:55:37;;;;;;;17.67;11.90;;;19.20;99.90;;;;;;4995650;28;20022;-73
2022/05/13 11:58:06;;;;;;;21.75;13.60;;;19.20;99.90;;;;;;4994426;28;20031;-73
2022/05/13 12:00:38;;;;;;;22.27;14.75;;;19.20;99.90;;;;;;4995515;28;20026;-74
2022/05/13 12:03:17;;;;;;;19.40;13.43;;;19.20;99.90;;;;;;4994178;28;20022;-74
2022/05/13 12:05:45;;;;;;;19.52;12.55;;;19.20;99.90;;;;;;4995341;28;20053;-74
2022/05/13 12:08:23;;;;;;;19.80;13.00;;;19.20;99.90;;;;;;4994129;28;20027;-73
2022/05/13 12:11:13;;;;;;;16.55;12.75;;;19.20;99.90;;;;;;4994184;28;20088;-74
2022/05/13 12:13:56;;;;;;;17.08;11.63;;;19.20;99.90;;;;;;4995503;28;20197;-74
2022/05/13 12:16:24;;;;;;;16.20;11.73;;;19.20;99.90;;;;;;4994053;28;20344;-73
2022/05/13 12:19:00;;;;;;;16.02;12.48;;;19.20;99.90;;;;;;4995747;28;20026;-74
2022/05/13 12:21:43;;;;;;;18.20;12.32;;;19.20;99.90;;;;;;4995774;28;20543;-74
2022/05/13 12:24:13;;;;;;;17.23;11.65;;;19.20;99.90;;;;;;4995084;28;20026;-75
2022/05/13 12:26:53;;;;;;;19.88;12.48;;;19.20;99.90;;;;;;4993817;28;20022;-75
2022/05/13 12:29:27;;;;;;;17.67;12.30;;;19.20;99.90;;;;;;4993794;28;20034;-74
2022/05/13 12:32:01;;;;;;;19.40;13.40;;;19.10;99.90;;;;;;4995710;28;20045;-76
2022/05/13 12:37:40;;;;;;;17.25;13.05;;;19.10;99.90;;;;;;4995546;28;20026;-74
2022/05/13 12:40:23;;;;;;;18.65;13.75;;;19.00;99.90;;;;;;4995427;28;20076;-74
2022/05/13 12:42:51;;;;;;;19.23;12.82;;;19.00;99.90;;;;;;4994793;28;20479;-75
2022/05/13 12:45:39;;;;;;;18.17;13.00;;;19.00;99.90;;;;;;4994875;28;20022;-75
2022/05/13 12:48:07;;;;;;;19.05;12.25;;;19.00;99.90;;;;;;4994909;28;20027;-74
2022/05/13 12:50:48;;;;;;;17.83;13.55;;;19.00;99.90;;;;;;4994799;28;20031;-74
2022/05/13 12:53:30;;;;;;;15.00;12.35;;;19.00;99.90;;;;;;4995245;28;20460;-74
2022/05/13 12:56:01;;;;;;;14.77;12.10;;;19.00;99.90;;;;;;4993459;28;20026;-75
2022/05/13 12:58:31;;;;;;;17.63;12.60;;;19.00;99.90;;;;;;4995053;28;20030;-72
2022/05/13 13:01:02;;;;;;;16.52;11.13;;;18.90;99.90;;;;;;4994667;28;20080;-75
2022/05/13 13:03:35;;;;;;;15.75;11.07;;;18.90;99.90;;;;;;4994481;28;20077;-73
2022/05/13 13:06:11;;;;;;;13.45;10.68;;;18.90;99.90;;;;;;4992985;28;20049;-73
2022/05/13 13:08:41;;;;;;;16.23;12.70;;;18.80;99.90;;;;;;4993310;28;20037;-74
2022/05/13 13:11:34;;;;;;;16.95;12.32;;;18.90;99.90;;;;;;4995093;28;20029;-74
2022/05/13 13:14:18;;;;;;;18.70;12.75;;;18.80;99.90;;;;;;4990197;28;20042;-75
2022/05/13 13:16:54;;;;;;;16.23;12.25;;;18.80;99.90;;;;;;4994669;28;20029;-74
2022/05/13 13:19:27;;;;;;;16.38;12.23;;;18.80;99.90;;;;;;4994727;28;20015;-74
2022/05/13 13:22:12;;;;;;;16.35;11.90;;;18.80;99.90;;;;;;4994424;28;20026;-75
2022/05/13 13:24:44;;;;;;;15.52;11.85;;;18.80;99.90;;;;;;4993476;28;20044;-76
2022/05/13 13:27:19;;;;;;;16.40;12.53;;;18.80;99.90;;;;;;4994200;28;20054;-74
2022/05/13 13:29:49;;;;;;;17.33;12.05;;;18.80;99.90;;;;;;4993344;28;20027;-73
2022/05/13 13:32:22;;;;;;;14.57;11.57;;;18.80;99.90;;;;;;4994240;28;20027;-75
2022/05/13 13:34:52;;;;;;;16.08;12.27;;;18.80;99.90;;;;;;4994145;28;20027;-74
2022/05/13 13:37:23;;;;;;;15.93;12.15;;;18.80;99.90;;;;;;4994120;28;20030;-75
2022/05/13 13:39:51;;;;;;;18.42;12.85;;;18.80;99.90;;;;;;4977197;28;20030;-75
2022/05/13 13:42:20;;;;;;;15.55;12.48;;;18.80;99.90;;;;;;4993741;28;20022;-74